^^
Saratoga-Weather Station Historical Data
Daily Summary for June 17, 2021 Units:  Metric    English   Both
Daily Weekly Monthly Yearly Custom
  High: Low: Average:
Temperature: 3.3 °C -2.5 °C 1.1 °C
Dew Point: 2.4 °C -3 °C 0.3 °C
Humidity: 97% 92% 95%
Wind Speed: 19.5km/h 0km/h 5.4km/h
Wind Gust: 27.4km/h - -
Wind- - West
Pressure: 1025.4 hPa 1016.3 hPa -
Precipitation: 19.3 mm    
Historical Graphs
 
 
Tabular Data for June 17, 2021
Time Temperature Dew Point Pressure Wind Wind Speed Wind Gust Humidity Rainfall Rate (Hourly) solar
00:04 -2.5 °C -3 °C 1017.6 hPa Calm     96% 0.0 mm 0 W/m2
00:09 -2.5 °C -3 °C 1017.6 hPa Calm     96% 0.0 mm 0 W/m2
00:14 -2.4 °C -3 °C 1017.6 hPa Calm     96% 0.0 mm 0 W/m2
00:19 -2.4 °C -3 °C 1017.6 hPa Calm     96% 0.0 mm 0 W/m2
00:24 -2.4 °C -3 °C 1017.6 hPa Calm     96% 0.0 mm 0 W/m2
00:29 -2.4 °C -3 °C 1017.6 hPa Calm     96% 0.0 mm 0 W/m2
00:34 -2.4 °C -3 °C 1017.3 hPa Calm     96% 0.0 mm 0 W/m2
00:39 -2.4 °C -3 °C 1017.3 hPa Calm     96% 0.0 mm 0 W/m2
00:44 -2.4 °C -3 °C 1017.3 hPa Calm     96% 0.0 mm 0 W/m2
00:49 -2.4 °C -3 °C 1016.9 hPa Calm     96% 0.0 mm 0 W/m2
00:54 -2.3 °C -2.9 °C 1016.9 hPa Calm     96% 0.0 mm 0 W/m2
00:59 -2.3 °C -2.9 °C 1016.9 hPa Calm     96% 0.0 mm 0 W/m2
01:04 -2.3 °C -2.9 °C 1016.9 hPa Calm     96% 0.0 mm 0 W/m2
01:09 -2.3 °C -2.9 °C 1016.6 hPa Calm     96% 0.0 mm 0 W/m2
01:14 -2.3 °C -2.9 °C 1016.9 hPa Calm     96% 0.0 mm 0 W/m2
01:19 -2.2 °C -2.8 °C 1016.9 hPa Calm     96% 0.0 mm 0 W/m2
01:24 -2.2 °C -2.8 °C 1016.9 hPa Calm     96% 0.0 mm 0 W/m2
01:29 -2.2 °C -2.8 °C 1016.6 hPa Calm     96% 0.0 mm 0 W/m2
01:34 -2.2 °C -2.8 °C 1016.6 hPa Calm     96% 0.0 mm 0 W/m2
01:39 -2.2 °C -2.8 °C 1016.6 hPa Calm     96% 0.0 mm 0 W/m2
01:44 -2.2 °C -2.8 °C 1016.3 hPa Calm     96% 0.0 mm 0 W/m2
01:49 -2.2 °C -2.8 °C 1016.3 hPa Calm     96% 0.0 mm 0 W/m2
01:54 -2.2 °C -2.8 °C 1016.3 hPa Calm     96% 0.0 mm 0 W/m2
01:59 -2.3 °C -2.9 °C 1016.3 hPa Calm     96% 0.0 mm 0 W/m2
02:04 -2.2 °C -2.8 °C 1016.3 hPa Calm     96% 0.0 mm 0 W/m2
02:09 -2.2 °C -2.8 °C 1016.6 hPa Calm     96% 0.0 mm 0 W/m2
02:14 -2.2 °C -2.8 °C 1016.6 hPa Calm     96% 0.0 mm 0 W/m2
02:19 -2.2 °C -2.8 °C 1016.6 hPa Calm     96% 0.0 mm 0 W/m2
02:24 -2.2 °C -2.8 °C 1016.6 hPa Calm     96% 0.0 mm 0 W/m2
02:29 -2.2 °C -2.8 °C 1016.6 hPa Calm     96% 0.0 mm 0 W/m2
02:34 -2.2 °C -2.8 °C 1016.6 hPa Calm     96% 0.0 mm 0 W/m2
02:39 -2.2 °C -2.8 °C 1016.6 hPa Calm     96% 0.0 mm 0 W/m2
02:44 -2.2 °C -2.8 °C 1016.6 hPa Calm     96% 0.0 mm 0 W/m2
02:49 -2.2 °C -2.8 °C 1016.6 hPa Calm     96% 0.0 mm 0 W/m2
02:54 -2.2 °C -2.8 °C 1016.6 hPa Calm     96% 0.0 mm 0 W/m2
02:59 -2.1 °C -2.7 °C 1016.6 hPa Calm     96% 0.0 mm 0 W/m2
03:04 -2.1 °C -2.7 °C 1016.6 hPa Calm     96% 0.0 mm 0 W/m2
03:09 -2.1 °C -2.7 °C 1016.6 hPa Calm     96% 0.0 mm 0 W/m2
03:14 -2.1 °C -2.7 °C 1016.6 hPa Calm     96% 0.0 mm 0 W/m2
03:19 -2.1 °C -2.7 °C 1016.3 hPa Calm     96% 0.0 mm 0 W/m2
03:24 -2.1 °C -2.7 °C 1016.3 hPa Calm     96% 0.0 mm 0 W/m2
03:29 -2.1 °C -2.7 °C 1016.3 hPa Calm     96% 0.0 mm 0 W/m2
03:34 -2.1 °C -2.7 °C 1016.3 hPa Calm     96% 0.0 mm 0 W/m2
03:39 -2.1 °C -2.7 °C 1016.3 hPa Calm     96% 0.0 mm 0 W/m2
03:44 -2.1 °C -2.7 °C 1016.3 hPa Calm     96% 0.0 mm 0 W/m2
03:49 -2.1 °C -2.7 °C 1016.3 hPa Calm     96% 0.0 mm 0 W/m2
03:54 -2 °C -2.6 °C 1016.6 hPa Calm     96% 0.0 mm 0 W/m2
03:59 -2 °C -2.6 °C 1016.9 hPa Calm     96% 0.0 mm 0 W/m2
04:04 -1.9 °C -2.5 °C 1016.9 hPa Calm     96% 0.0 mm 0 W/m2
04:09 -1.9 °C -2.5 °C 1016.9 hPa Calm     96% 0.0 mm 0 W/m2
04:14 -1.9 °C -2.5 °C 1016.9 hPa Calm     96% 0.0 mm 0 W/m2
04:19 -1.9 °C -2.5 °C 1016.9 hPa Calm     96% 0.0 mm 0 W/m2
04:24 -1.9 °C -2.5 °C 1016.9 hPa Calm     96% 0.0 mm 0 W/m2
04:29 -1.9 °C -2.5 °C 1016.9 hPa Calm     96% 0.0 mm 0 W/m2
04:34 -1.9 °C -2.5 °C 1017.3 hPa Calm     96% 0.0 mm 0 W/m2
04:39 -1.8 °C -2.4 °C 1017.3 hPa Calm     96% 0.0 mm 0 W/m2
04:44 -1.8 °C -2.4 °C 1016.9 hPa Calm     96% 0.0 mm 0 W/m2
04:49 -1.8 °C -2.4 °C 1016.9 hPa Calm     96% 0.0 mm 0 W/m2
04:54 -1.8 °C -2.4 °C 1016.9 hPa Calm     96% 0.0 mm 0 W/m2
04:59 -1.8 °C -2.4 °C 1016.9 hPa Calm     96% 0.0 mm 0 W/m2
05:04 -1.8 °C -2.4 °C 1016.9 hPa Calm     96% 0.0 mm 0 W/m2
05:09 -1.7 °C -2.3 °C 1016.9 hPa Calm     96% 0.0 mm 0 W/m2
05:14 -1.7 °C -2.3 °C 1016.6 hPa Calm     96% 0.0 mm 0 W/m2
05:19 -1.7 °C -2.3 °C 1016.6 hPa Calm     96% 0.0 mm 0 W/m2
05:24 -1.6 °C -2.2 °C 1016.9 hPa Calm     96% 0.0 mm 0 W/m2
05:29 -1.6 °C -2.2 °C 1016.9 hPa Calm     96% 0.0 mm 0 W/m2
05:34 -1.6 °C -2.2 °C 1016.9 hPa Calm     96% 0.0 mm 0 W/m2
05:39 -1.6 °C -2.2 °C 1016.9 hPa Calm     96% 0.0 mm 0 W/m2
05:44 -1.6 °C -2.2 °C 1016.9 hPa Calm     96% 0.0 mm 0 W/m2
05:49 -1.6 °C -2.2 °C 1016.9 hPa Calm     96% 0.0 mm 0 W/m2
05:54 -1.5 °C -2.1 °C 1016.9 hPa Calm     96% 0.0 mm 0 W/m2
05:59 -1.3 °C -1.9 °C 1016.6 hPa Calm     96% 0.0 mm 0 W/m2
06:04 -1.2 °C -1.6 °C 1016.9 hPa Calm     97% 0.0 mm 0 W/m2
06:09 -1.2 °C -1.6 °C 1016.6 hPa Calm     97% 0.0 mm 0 W/m2
06:14 -0.8 °C -1.2 °C 1016.6 hPa Calm     97% 0.0 mm 0 W/m2
06:19 -0.6 °C -1 °C 1016.6 hPa Calm     97% 0.0 mm 0 W/m2
06:25 -0.5 °C -0.9 °C 1016.6 hPa Calm     97% 0.0 mm 0 W/m2
06:30 -0.4 °C -0.8 °C 1016.6 hPa Calm     97% 0.0 mm 0 W/m2
06:35 -0.4 °C -0.8 °C 1016.6 hPa Calm     97% 0.0 mm 0 W/m2
06:40 -0.3 °C -0.7 °C 1016.6 hPa Calm     97% 0.0 mm 0 W/m2
06:45 -0.3 °C -0.7 °C 1016.6 hPa Calm     97% 0.0 mm 0 W/m2
06:50 -0.4 °C -0.8 °C 1016.6 hPa Calm     97% 0.0 mm 0 W/m2
06:55 -0.3 °C -0.9 °C 1016.6 hPa Calm     96% 0.0 mm 0 W/m2
07:00 -0.3 °C -0.7 °C 1016.9 hPa Calm     97% 0.0 mm 0 W/m2
07:05 -0.3 °C -0.7 °C 1016.9 hPa Calm     97% 0.0 mm 0 W/m2
07:10 -0.3 °C -0.7 °C 1016.9 hPa Calm     97% 0.0 mm 0 W/m2
07:15 -0.3 °C -0.7 °C 1016.9 hPa Calm     97% 0.0 mm 0 W/m2
07:20 -0.3 °C -0.7 °C 1016.9 hPa Calm     97% 0.0 mm 0 W/m2
07:25 -0.3 °C -0.7 °C 1016.9 hPa Calm     97% 0.0 mm 0 W/m2
07:30 -0.2 °C -0.6 °C 1016.9 hPa Calm     97% 0.0 mm 0 W/m2
07:35 -0.2 °C -0.6 °C 1016.9 hPa Calm     97% 0.0 mm 0 W/m2
07:40 -0.3 °C -0.7 °C 1016.9 hPa Calm     97% 0.0 mm 0 W/m2
07:45 -0.3 °C -0.7 °C 1016.9 hPa Calm     97% 0.0 mm 0 W/m2
07:50 -0.3 °C -0.9 °C 1016.9 hPa Calm     96% 0.0 mm 0 W/m2
07:55 -0.3 °C -0.7 °C 1017.3 hPa Calm     97% 0.0 mm 0 W/m2
08:00 -0.3 °C -0.7 °C 1016.9 hPa Calm     97% 0.0 mm 0 W/m2
08:05 -0.2 °C -0.6 °C 1016.9 hPa Calm     97% 0.0 mm 0 W/m2
08:10 -0.1 °C -0.5 °C 1017.3 hPa Calm     97% 0.0 mm 0 W/m2
08:15 -0.1 °C -0.5 °C 1017.3 hPa Calm     97% 0.0 mm 0 W/m2
08:20 0 °C -0.4 °C 1017.6 hPa Calm     97% 0.0 mm 0 W/m2
08:25 0.1 °C -0.3 °C 1017.3 hPa Calm     97% 0.0 mm 0 W/m2
08:30 0.2 °C -0.2 °C 1017.6 hPa Calm   1.6 km/h 97% 0.0 mm 0 W/m2
08:35 0.3 °C -0.1 °C 1017.6 hPa Calm     97% 0.0 mm 0 W/m2
08:40 0.4 °C 0 °C 1017.6 hPa ENE 1.6 km/h 1.6 km/h 97% 0.0 mm 0 W/m2
08:45 0.6 °C 0.2 °C 1017.3 hPa SW 3.2 km/h 4.8 km/h 97% 0.0 mm 0 W/m2
08:50 0.7 °C 0.3 °C 1017.3 hPa NNW 1.4 km/h 3.2 km/h 97% 0.0 mm 0 W/m2
08:55 0.8 °C 0.4 °C 1017.6 hPa NW 4.7 km/h 6.4 km/h 97% 0.0 mm 0 W/m2
09:00 0.8 °C 0.4 °C 1017.6 hPa Calm   4.8 km/h 97% 0.0 mm 0 W/m2
09:05 0.8 °C 0.4 °C 1017.6 hPa WNW 1.4 km/h 4.8 km/h 97% 0.0 mm 0 W/m2
09:10 0.9 °C 0.5 °C 1017.6 hPa WSW 4.7 km/h 14.5 km/h 97% 0.0 mm 0 W/m2
09:15 1 °C 0.6 °C 1017.6 hPa WNW 3.2 km/h 6.4 km/h 97% 0.0 mm 0 W/m2
09:20 1.1 °C 0.7 °C 1018.0 hPa West 3.2 km/h 14.5 km/h 97% 0.0 mm 0 W/m2
09:25 1.1 °C 0.7 °C 1017.6 hPa WNW 1.4 km/h 4.8 km/h 97% 0.0 mm 0 W/m2
09:30 1.1 °C 0.5 °C 1017.6 hPa WNW 7.9 km/h 11.3 km/h 96% 0.0 mm 0 W/m2
09:35 1.2 °C 0.6 °C 1017.6 hPa WNW 11.1 km/h 14.5 km/h 96% 0.0 mm 0 W/m2
09:40 1.3 °C 0.9 °C 1018.0 hPa NW 3.2 km/h 11.3 km/h 97% 0.0 mm 0 W/m2
09:45 1.3 °C 0.7 °C 1018.0 hPa NW 3.2 km/h 14.5 km/h 96% 0.0 mm 0 W/m2
09:50 1.3 °C 0.7 °C 1018.0 hPa NW 1.4 km/h 12.9 km/h 96% 0.0 mm 0 W/m2
09:55 1.3 °C 0.7 °C 1018.0 hPa West 9.7 km/h 19.3 km/h 96% 0.0 mm 5 W/m2
10:00 1.4 °C 0.8 °C 1018.0 hPa WNW 3.2 km/h 8 km/h 96% 0.0 mm 7 W/m2
10:05 1.5 °C 0.9 °C 1018.3 hPa WNW 6.4 km/h 14.5 km/h 96% 0.0 mm 7 W/m2
10:10 1.5 °C 0.9 °C 1018.0 hPa WNW 9.7 km/h 14.5 km/h 96% 0.0 mm 9 W/m2
10:15 1.5 °C 0.9 °C 1018.3 hPa SW 4.7 km/h 8 km/h 96% 0.0 mm 7 W/m2
10:20 1.6 °C 1 °C 1018.6 hPa WNW 6.4 km/h 11.3 km/h 96% 0.0 mm 7 W/m2
10:25 1.6 °C 1 °C 1018.6 hPa West 4.7 km/h 11.3 km/h 96% 0.0 mm 7 W/m2
10:30 1.6 °C 1 °C 1018.6 hPa West 3.2 km/h 6.4 km/h 96% 0.0 mm 9 W/m2
10:35 1.6 °C 1 °C 1018.6 hPa WSW 14.5 km/h 14.5 km/h 96% 0.0 mm 12 W/m2
10:40 1.7 °C 1.1 °C 1018.6 hPa WNW 11.1 km/h 12.9 km/h 96% 0.0 mm 12 W/m2
10:52 1.8 °C 1.1 °C 1019.0 hPa West 3.2 km/h 12.9 km/h 95% 0.0 mm 11 W/m2
10:57 1.8 °C 1.1 °C 1019.0 hPa NW 7.9 km/h 14.5 km/h 95% 0.0 mm 9 W/m2
11:02 1.9 °C 1.3 °C 1019.0 hPa WNW 4.7 km/h 6.4 km/h 96% 0.0 mm 12 W/m2
11:07 1.9 °C 1.3 °C 1019.0 hPa WSW 3.2 km/h 12.9 km/h 96% 0.0 mm 11 W/m2
11:12 1.9 °C 1.2 °C 1019.0 hPa West 6.4 km/h 9.7 km/h 95% 0.0 mm 12 W/m2
11:17 2 °C 1.3 °C 1019.0 hPa West 1.4 km/h 6.4 km/h 95% 0.0 mm 12 W/m2
11:22 2 °C 1.3 °C 1019.0 hPa WNW 3.2 km/h 9.7 km/h 95% 0.0 mm 14 W/m2
11:27 2.1 °C 1.4 °C 1019.3 hPa Calm   9.7 km/h 95% 0.0 mm 12 W/m2
11:32 2.2 °C 1.5 °C 1019.3 hPa West 1.4 km/h 4.8 km/h 95% 0.2 mm 14 W/m2
11:37 2.2 °C 1.5 °C 1019.3 hPa WSW 3.2 km/h 6.4 km/h 95% 0.2 mm 12 W/m2
11:42 2.3 °C 1.6 °C 1019.3 hPa WNW 3.2 km/h 6.4 km/h 95% 0.2 mm 12 W/m2
11:47 2.3 °C 1.6 °C 1019.3 hPa West 1.4 km/h 3.2 km/h 95% 0.5 mm 11 W/m2
11:52 2.3 °C 1.6 °C 1019.6 hPa WNW 3.2 km/h 3.2 km/h 95% 0.5 mm 9 W/m2
11:57 2.3 °C 1.6 °C 1019.6 hPa West 4.7 km/h 11.3 km/h 95% 0.5 mm 7 W/m2
12:02 2.2 °C 1.5 °C 1019.6 hPa SW 4.7 km/h 11.3 km/h 95% 0.5 mm 7 W/m2
12:07 2.1 °C 1.4 °C 1019.6 hPa WSW 3.2 km/h 11.3 km/h 95% 0.5 mm 7 W/m2
12:12 2.1 °C 1.4 °C 1019.6 hPa West 3.2 km/h 6.4 km/h 95% 0.5 mm 7 W/m2
12:17 2.1 °C 1.4 °C 1019.6 hPa WNW 4.7 km/h 6.4 km/h 95% 0.5 mm 9 W/m2
12:22 2.1 °C 1.4 °C 1019.6 hPa SW 4.7 km/h 11.3 km/h 95% 0.5 mm 11 W/m2
12:27 2.1 °C 1.4 °C 1019.6 hPa WNW 4.7 km/h 11.3 km/h 95% 0.5 mm 11 W/m2
12:32 2.2 °C 1.5 °C 1019.6 hPa WNW 4.7 km/h 12.9 km/h 95% 0.5 mm 14 W/m2
12:37 2.2 °C 1.5 °C 1019.6 hPa West 6.4 km/h 12.9 km/h 95% 0.5 mm 16 W/m2
12:42 2.3 °C 1.7 °C 1019.6 hPa West 3.2 km/h 8 km/h 96% 0.5 mm 19 W/m2
12:47 2.3 °C 1.6 °C 1019.6 hPa WNW 6.4 km/h 12.9 km/h 95% 0.2 mm 21 W/m2
12:52 2.4 °C 1.7 °C 1019.6 hPa West 9.7 km/h 16.1 km/h 95% 0.2 mm 25 W/m2
13:02 2.6 °C 1.9 °C 1020.0 hPa West 11.1 km/h 14.5 km/h 95% 0.0 mm 40 W/m2
13:07 2.6 °C 1.9 °C 1020.0 hPa West 11.1 km/h 14.5 km/h 95% 0.2 mm 56 W/m2
13:12 2.6 °C 1.9 °C 1020.0 hPa West 9.7 km/h 12.9 km/h 95% 0.5 mm 76 W/m2
13:17 2.8 °C 2.1 °C 1020.0 hPa WNW 4.7 km/h 14.5 km/h 95% 1.3 mm 58 W/m2
13:22 2.8 °C 2.1 °C 1020.0 hPa WSW 13 km/h 14.5 km/h 95% 1.5 mm 54 W/m2
13:27 2.8 °C 2.1 °C 1020.0 hPa West 6.4 km/h 12.9 km/h 95% 2.0 mm 67 W/m2
13:32 2.9 °C 2.2 °C 1020.0 hPa WNW 11.1 km/h 16.1 km/h 95% 2.3 mm 123 W/m2
13:37 3 °C 2.3 °C 1020.0 hPa WNW 4.7 km/h 14.5 km/h 95% 2.8 mm 98 W/m2
13:42 3.1 °C 2.2 °C 1020.0 hPa West 9.7 km/h 12.9 km/h 94% 3.3 mm 77 W/m2
13:47 3.1 °C 2.2 °C 1020.0 hPa West 3.2 km/h 16.1 km/h 94% 3.6 mm 120 W/m2
13:52 3.1 °C 2.2 °C 1020.0 hPa West 9.7 km/h 17.7 km/h 94% 4.1 mm 135 W/m2
13:57 3.1 °C 2.2 °C 1020.3 hPa WSW 6.4 km/h 6.4 km/h 94% 4.3 mm 93 W/m2
14:02 3.1 °C 2.2 °C 1020.3 hPa WNW 6.4 km/h 17.7 km/h 94% 4.8 mm 84 W/m2
14:07 3.1 °C 2.2 °C 1020.3 hPa NW 13 km/h 16.1 km/h 94% 4.8 mm 105 W/m2
14:12 3.1 °C 2.2 °C 1020.3 hPa WSW 16.3 km/h 16.1 km/h 94% 4.8 mm 104 W/m2
14:22 3.1 °C 2.2 °C 1020.3 hPa WSW 4.7 km/h 17.7 km/h 94% 4.3 mm 105 W/m2
14:27 3.2 °C 2.3 °C 1020.3 hPa NW 6.4 km/h 16.1 km/h 94% 4.3 mm 146 W/m2
14:32 3.2 °C 2.3 °C 1020.3 hPa WNW 6.4 km/h 14.5 km/h 94% 4.3 mm 102 W/m2
14:37 3.2 °C 2.3 °C 1020.3 hPa SSW 6.4 km/h 14.5 km/h 94% 4.3 mm 102 W/m2
14:42 3.2 °C 2.3 °C 1020.7 hPa West 11.1 km/h 14.5 km/h 94% 4.3 mm 84 W/m2
14:47 3.3 °C 2.4 °C 1020.7 hPa West 9.7 km/h 16.1 km/h 94% 4.1 mm 69 W/m2
14:52 3.2 °C 2.3 °C 1020.7 hPa West 11.1 km/h 12.9 km/h 94% 3.8 mm 70 W/m2
14:57 3.2 °C 2.3 °C 1020.7 hPa SW 4.7 km/h 11.3 km/h 94% 3.8 mm 81 W/m2
15:02 3.2 °C 2.3 °C 1020.7 hPa West 11.1 km/h 14.5 km/h 94% 3.6 mm 69 W/m2
15:07 3.2 °C 2.3 °C 1020.7 hPa WSW 14.3 km/h 14.5 km/h 94% 3.6 mm 72 W/m2
15:12 3.2 °C 2.3 °C 1020.7 hPa West 9.7 km/h 24.1 km/h 94% 3.6 mm 42 W/m2
15:17 3.2 °C 2.2 °C 1020.7 hPa West 14.3 km/h 20.9 km/h 93% 3.3 mm 35 W/m2
15:22 3.1 °C 2.1 °C 1021.0 hPa WNW 7.9 km/h 17.7 km/h 93% 3.3 mm 37 W/m2
15:27 3.2 °C 2.3 °C 1021.0 hPa WSW 16.3 km/h 20.9 km/h 94% 3.3 mm 39 W/m2
15:32 3.2 °C 2.2 °C 1021.0 hPa WNW 14.3 km/h 19.3 km/h 93% 3.0 mm 28 W/m2
15:37 3.2 °C 2.2 °C 1021.0 hPa WNW 7.9 km/h 14.5 km/h 93% 3.0 mm 28 W/m2
15:42 3.2 °C 2.2 °C 1021.3 hPa West 11.1 km/h 19.3 km/h 93% 2.8 mm 30 W/m2
15:47 3.2 °C 2.2 °C 1021.3 hPa WNW 6.4 km/h 16.1 km/h 93% 2.5 mm 26 W/m2
15:52 3.2 °C 2.2 °C 1021.3 hPa West 6.4 km/h 16.1 km/h 93% 2.5 mm 26 W/m2
15:57 3.2 °C 2.2 °C 1021.3 hPa West 13 km/h 16.1 km/h 93% 2.3 mm 26 W/m2
16:02 3.2 °C 2.2 °C 1021.7 hPa West 11.1 km/h 12.9 km/h 93% 2.3 mm 26 W/m2
16:07 3.2 °C 2.2 °C 1022.0 hPa West 6.4 km/h 22.5 km/h 93% 2.3 mm 28 W/m2
16:12 3.1 °C 2.1 °C 1021.7 hPa WNW 16.3 km/h 19.3 km/h 93% 2.0 mm 26 W/m2
16:17 3.1 °C 2.1 °C 1022.0 hPa West 13 km/h 22.5 km/h 93% 2.0 mm 23 W/m2
16:22 3.2 °C 2.2 °C 1022.0 hPa West 16.3 km/h 16.1 km/h 93% 2.0 mm 21 W/m2
16:27 3.2 °C 2.2 °C 1022.0 hPa WNW 13 km/h 19.3 km/h 93% 1.8 mm 18 W/m2
16:32 3.2 °C 2.2 °C 1022.4 hPa West 9.7 km/h 16.1 km/h 93% 1.8 mm 12 W/m2
16:37 3.2 °C 2.2 °C 1022.4 hPa West 11.1 km/h 19.3 km/h 93% 1.8 mm 9 W/m2
16:42 3.2 °C 2 °C 1022.4 hPa West 9.7 km/h 12.9 km/h 92% 1.8 mm 9 W/m2
16:47 3.3 °C 2.3 °C 1022.7 hPa West 11.1 km/h 17.7 km/h 93% 1.8 mm 9 W/m2
16:52 3.3 °C 2.1 °C 1022.7 hPa WSW 4.7 km/h 9.7 km/h 92% 1.8 mm 7 W/m2
16:57 3.3 °C 2.1 °C 1022.7 hPa WSW 11.1 km/h 14.5 km/h 92% 1.8 mm 7 W/m2
17:02 3.2 °C 2 °C 1022.7 hPa West 6.4 km/h 12.9 km/h 92% 1.5 mm 5 W/m2
17:07 3.2 °C 2 °C 1022.7 hPa West 6.4 km/h 12.9 km/h 92% 1.5 mm 0 W/m2
17:12 3.2 °C 2.2 °C 1022.7 hPa West 11.1 km/h 16.1 km/h 93% 1.5 mm 0 W/m2
17:17 3.2 °C 2.2 °C 1022.7 hPa West 11.1 km/h 14.5 km/h 93% 1.5 mm 0 W/m2
17:22 3.2 °C 2.2 °C 1023.0 hPa West 11.1 km/h 16.1 km/h 93% 1.5 mm 0 W/m2
17:27 3.2 °C 2.2 °C 1022.7 hPa NW 4.7 km/h 17.7 km/h 93% 1.5 mm 0 W/m2
17:32 3.2 °C 2.2 °C 1022.7 hPa NW 7.9 km/h 16.1 km/h 93% 1.5 mm 0 W/m2
17:37 3.2 °C 2.2 °C 1023.0 hPa WNW 7.9 km/h 22.5 km/h 93% 1.5 mm 0 W/m2
17:42 3.2 °C 2.2 °C 1023.0 hPa WSW 7.9 km/h 17.7 km/h 93% 1.5 mm 0 W/m2
17:47 3.3 °C 2.3 °C 1023.0 hPa West 13 km/h 20.9 km/h 93% 1.5 mm 0 W/m2
17:52 3.3 °C 2.3 °C 1023.0 hPa West 14.3 km/h 17.7 km/h 93% 1.5 mm 0 W/m2
17:57 3.3 °C 2.3 °C 1023.4 hPa WSW 7.9 km/h 16.1 km/h 93% 1.5 mm 0 W/m2
18:02 3.3 °C 2.3 °C 1023.4 hPa WNW 6.4 km/h 14.5 km/h 93% 1.8 mm 0 W/m2
18:07 3.2 °C 2.2 °C 1023.4 hPa West 13 km/h 16.1 km/h 93% 1.8 mm 0 W/m2
18:12 3.2 °C 2.2 °C 1023.7 hPa WNW 11.1 km/h 16.1 km/h 93% 1.8 mm 0 W/m2
18:17 3.2 °C 2.2 °C 1023.7 hPa West 16.3 km/h 16.1 km/h 93% 1.8 mm 0 W/m2
18:22 3.2 °C 2.2 °C 1023.7 hPa WNW 7.9 km/h 12.9 km/h 93% 1.5 mm 0 W/m2
18:27 3.2 °C 2.3 °C 1023.7 hPa WSW 7.9 km/h 17.7 km/h 94% 1.8 mm 0 W/m2
18:32 3.2 °C 2.2 °C 1023.7 hPa West 6.4 km/h 16.1 km/h 93% 1.8 mm 0 W/m2
18:37 3.2 °C 2.2 °C 1024.0 hPa WNW 11.1 km/h 19.3 km/h 93% 1.5 mm 0 W/m2
18:42 3.2 °C 2.2 °C 1024.0 hPa West 6.4 km/h 12.9 km/h 93% 1.5 mm 0 W/m2
18:47 3.2 °C 2.3 °C 1024.0 hPa West 9.7 km/h 19.3 km/h 94% 1.5 mm 0 W/m2
18:52 3.2 °C 2.2 °C 1024.0 hPa WNW 13 km/h 20.9 km/h 93% 1.5 mm 0 W/m2
18:57 3.2 °C 2.2 °C 1024.0 hPa West 6.4 km/h 12.9 km/h 93% 1.5 mm 0 W/m2
19:02 3.1 °C 2.1 °C 1024.0 hPa West 17.7 km/h 17.7 km/h 93% 1.5 mm 0 W/m2
19:07 3.1 °C 2.2 °C 1024.0 hPa WNW 11.1 km/h 12.9 km/h 94% 1.5 mm 0 W/m2
19:12 3.1 °C 2.2 °C 1024.0 hPa WNW 13 km/h 14.5 km/h 94% 1.5 mm 0 W/m2
19:17 3.1 °C 2.2 °C 1024.0 hPa WSW 4.7 km/h 17.7 km/h 94% 1.5 mm 0 W/m2
19:22 3 °C 2.1 °C 1024.0 hPa West 9.7 km/h 22.5 km/h 94% 1.3 mm 0 W/m2
19:27 3 °C 2.1 °C 1024.0 hPa WSW 6.4 km/h 19.3 km/h 94% 1.3 mm 0 W/m2
19:32 2.9 °C 2 °C 1024.0 hPa West 13 km/h 17.7 km/h 94% 1.3 mm 0 W/m2
19:37 2.9 °C 2 °C 1024.0 hPa West 9.7 km/h 17.7 km/h 94% 1.3 mm 0 W/m2
19:42 2.9 °C 2 °C 1024.0 hPa WSW 14.3 km/h 16.1 km/h 94% 1.3 mm 0 W/m2
19:47 2.9 °C 2 °C 1024.0 hPa WNW 11.1 km/h 27.4 km/h 94% 1.3 mm 0 W/m2
19:52 2.9 °C 2 °C 1024.0 hPa WNW 19.5 km/h 19.3 km/h 94% 1.3 mm 0 W/m2
19:57 2.8 °C 1.9 °C 1024.0 hPa SW 4.7 km/h 27.4 km/h 94% 1.0 mm 0 W/m2
20:02 2.8 °C 1.9 °C 1024.0 hPa West 11.1 km/h 16.1 km/h 94% 1.3 mm 0 W/m2
20:07 2.8 °C 1.9 °C 1024.0 hPa West 9.7 km/h 19.3 km/h 94% 1.0 mm 0 W/m2
20:12 2.8 °C 1.9 °C 1024.0 hPa WNW 16.3 km/h 20.9 km/h 94% 1.0 mm 0 W/m2
20:17 2.7 °C 1.8 °C 1024.0 hPa West 6.4 km/h 20.9 km/h 94% 1.0 mm 0 W/m2
20:22 2.6 °C 1.7 °C 1024.0 hPa WSW 14.3 km/h 17.7 km/h 94% 1.0 mm 0 W/m2
20:27 2.6 °C 1.7 °C 1024.0 hPa West 14.3 km/h 16.1 km/h 94% 1.0 mm 0 W/m2
20:32 2.6 °C 1.7 °C 1024.0 hPa West 14.3 km/h 22.5 km/h 94% 1.0 mm 0 W/m2
20:38 2.6 °C 1.7 °C 1024.4 hPa West 17.7 km/h 24.1 km/h 94% 1.0 mm 0 W/m2
20:43 2.6 °C 1.7 °C 1024.0 hPa West 11.1 km/h 16.1 km/h 94% 0.8 mm 0 W/m2
20:48 2.6 °C 1.7 °C 1024.0 hPa SW 7.9 km/h 24.1 km/h 94% 0.8 mm 0 W/m2
20:53 2.7 °C 1.8 °C 1024.0 hPa WNW 9.7 km/h 19.3 km/h 94% 0.8 mm 0 W/m2
20:58 2.7 °C 1.8 °C 1024.4 hPa West 13 km/h 22.5 km/h 94% 0.8 mm 0 W/m2
21:03 2.7 °C 1.8 °C 1024.4 hPa West 11.1 km/h 20.9 km/h 94% 0.5 mm 0 W/m2
21:08 2.7 °C 1.8 °C 1024.4 hPa West 13 km/h 22.5 km/h 94% 0.8 mm 0 W/m2
21:13 2.7 °C 1.7 °C 1024.4 hPa WNW 16.3 km/h 20.9 km/h 93% 0.8 mm 0 W/m2
21:18 2.7 °C 1.7 °C 1024.4 hPa WNW 11.1 km/h 17.7 km/h 93% 0.8 mm 0 W/m2
21:23 2.7 °C 1.7 °C 1024.7 hPa WNW 9.7 km/h 17.7 km/h 93% 0.8 mm 0 W/m2
21:28 2.7 °C 1.8 °C 1024.7 hPa WNW 11.1 km/h 16.1 km/h 94% 0.8 mm 0 W/m2
21:33 2.6 °C 1.7 °C 1025.1 hPa WNW 7.9 km/h 16.1 km/h 94% 0.5 mm 0 W/m2
21:38 2.6 °C 1.7 °C 1025.1 hPa WSW 11.1 km/h 14.5 km/h 94% 0.8 mm 0 W/m2
21:43 2.6 °C 1.7 °C 1025.1 hPa West 17.7 km/h 19.3 km/h 94% 0.8 mm 0 W/m2
21:48 2.6 °C 1.7 °C 1025.1 hPa WNW 11.1 km/h 16.1 km/h 94% 0.8 mm 0 W/m2
21:53 2.6 °C 1.7 °C 1025.1 hPa WNW 6.4 km/h 19.3 km/h 94% 0.5 mm 0 W/m2
21:58 2.6 °C 1.7 °C 1025.1 hPa WSW 13 km/h 16.1 km/h 94% 0.8 mm 0 W/m2
22:03 2.6 °C 1.7 °C 1025.1 hPa West 9.7 km/h 12.9 km/h 94% 0.8 mm 0 W/m2
22:08 2.6 °C 1.7 °C 1025.1 hPa West 9.7 km/h 14.5 km/h 94% 0.5 mm 0 W/m2
22:13 2.6 °C 1.6 °C 1025.1 hPa NW 9.7 km/h 14.5 km/h 93% 0.5 mm 0 W/m2
22:18 2.6 °C 1.7 °C 1025.1 hPa WSW 13 km/h 14.5 km/h 94% 0.5 mm 0 W/m2
22:23 2.6 °C 1.6 °C 1025.1 hPa West 6.4 km/h 17.7 km/h 93% 0.5 mm 0 W/m2
22:28 2.4 °C 1.4 °C 1025.1 hPa West 9.7 km/h 14.5 km/h 93% 0.5 mm 0 W/m2
22:33 2.4 °C 1.4 °C 1025.1 hPa West 13 km/h 17.7 km/h 93% 0.5 mm 0 W/m2
22:38 2.5 °C 1.5 °C 1025.1 hPa WNW 11.1 km/h 12.9 km/h 93% 0.5 mm 0 W/m2
22:43 2.5 °C 1.5 °C 1025.1 hPa WNW 7.9 km/h 16.1 km/h 93% 0.5 mm 0 W/m2
22:48 2.5 °C 1.5 °C 1025.1 hPa West 9.7 km/h 12.9 km/h 93% 0.5 mm 0 W/m2
22:53 2.6 °C 1.6 °C 1025.1 hPa West 9.7 km/h 16.1 km/h 93% 0.5 mm 0 W/m2
22:58 2.6 °C 1.6 °C 1025.1 hPa West 11.1 km/h 12.9 km/h 93% 0.2 mm 0 W/m2
23:03 2.7 °C 1.7 °C 1025.4 hPa West 9.7 km/h 17.7 km/h 93% 0.2 mm 0 W/m2
23:08 2.7 °C 1.5 °C 1025.4 hPa West 6.4 km/h 14.5 km/h 92% 0.5 mm 0 W/m2
23:13 2.7 °C 1.5 °C 1025.4 hPa WNW 14.3 km/h 16.1 km/h 92% 0.5 mm 0 W/m2
23:18 2.8 °C 1.6 °C 1025.4 hPa WSW 7.9 km/h 17.7 km/h 92% 0.5 mm 0 W/m2
23:23 2.8 °C 1.6 °C 1025.4 hPa NW 4.7 km/h 12.9 km/h 92% 0.2 mm 0 W/m2
23:28 2.7 °C 1.5 °C 1025.4 hPa West 4.7 km/h 11.3 km/h 92% 0.2 mm 0 W/m2
23:33 2.7 °C 1.5 °C 1025.4 hPa WNW 3.2 km/h 11.3 km/h 92% 0.2 mm 0 W/m2
23:38 2.6 °C 1.4 °C 1025.4 hPa WNW 4.7 km/h 12.9 km/h 92% 0.2 mm 0 W/m2
23:43 2.6 °C 1.4 °C 1025.4 hPa WNW 4.7 km/h 6.4 km/h 92% 0.2 mm 0 W/m2
23:48 2.6 °C 1.4 °C 1025.4 hPa WNW 4.7 km/h 8 km/h 92% 0.2 mm 0 W/m2
23:53 2.5 °C 1.3 °C 1025.4 hPa WNW 3.2 km/h 6.4 km/h 92% 0.2 mm 0 W/m2
23:58 2.4 °C 1.2 °C 1025.4 hPa WSW 6.4 km/h 6.4 km/h 92% 0.2 mm 0 W/m2
Juneau County Weather
Compliments of Weather Underground - 4 mb